• Join FlightAware (Why Join?)
  • Login
  • US Flag 
07:59AM EDT


 

Airport Tracker/Info


-or-


 

Live Flight TrackerFlight Track Log ✈ N541JD ✈ 13-Apr-2014 ✈ KNEW - KEKY

Flight Track Log - Related Links

Times and Time Zones

All times are in EDT time to prevent confusion due to time zone crossing. See the N541JD flight status page for this flight to view local times or setup timezone preferences in your user account.

Time Position Orientation Groundspeed Altitude Reporting Facility
EDT Latitude Longitude Course Direction KTS MPH feet Rate Location/Type
06:20PM 30.0317 -90.0308 172° South 78 90 600  Level Houston Center
06:20PM 30.0192 -90.0289 172° South 88 101 1,300 960 Climbing Houston Center
06:21PM 30.0206 -90.0047 86° East 137 158 2,100 780 Climbing Houston Center
06:22PM 30.0317 -89.9981 27° Northeast 124 143 2,600 1,080 Climbing Houston Center
06:22PM 30.0514 -89.9867 27° Northeast 134 154 3,200 1,140 Climbing Houston Center
06:23PM 30.0708 -89.9769 23° Northeast 128 147 3,800 780 Climbing Houston Center
06:23PM 30.0842 -89.9708 22° Northeast 133 153 4,000 840 Climbing Houston Center
06:24PM 30.1192 -89.9525 24° Northeast 132 152 5,100 660 Climbing Houston Center
06:25PM 30.1419 -89.9417 22° Northeast 135 155 5,100 -120 Level Houston Center
06:25PM 30.1644 -89.9314 22° Northeast 180 207 5,000 -120 Descending Houston Center
06:26PM 30.1883 -89.9172 27° Northeast 163 188 5,000  Level Houston Center
06:26PM 30.2117 -89.9028 28° Northeast 190 219 5,000  Level Houston Center
06:27PM 30.2342 -89.8883 29° Northeast 177 204 5,000  Level Houston Center
06:28PM 30.2811 -89.8608 27° Northeast 183 211 5,100  Climbing Houston Center
06:29PM 30.3322 -89.8219 33° Northeast 185 213 5,100  Level Houston Center
06:30PM 30.3842 -89.7981 22° Northeast 186 214 5,100  Level Houston Center
06:31PM 30.4347 -89.7792 18° North 186 214 5,100  Level Houston Center
06:32PM 30.4842 -89.7597 19° North 186 214 5,100  Level Houston Center
06:33PM 30.5328 -89.7431 16° North 190 219 5,100 -60 Level Houston Center
06:34PM 30.5847 -89.7211 20° North 186 214 5,000  Descending Houston Center
06:35PM 30.6336 -89.6975 23° Northeast 186 214 5,100  Climbing Houston Center
06:36PM 30.6828 -89.6753 21° North 187 215 5,100  Level Houston Center
06:37PM 30.7106 -89.6622 22° Northeast 192 221 5,100  Level Houston Center
06:37PM 30.7414 -89.6489 20° North 187 215 5,100  Level Houston Center
06:38PM 30.7911 -89.6272 21° North 187 215 5,100  Level Houston Center
06:39PM 30.8414 -89.6044 21° North 190 219 5,100 -60 Level Houston Center
06:40PM 30.8917 -89.5808 22° Northeast 190 219 5,000 -60 Descending Houston Center
06:41PM 30.9414 -89.5583 21° North 191 220 5,000  Level Houston Center
06:42PM 31.0008 -89.5311 21° North 191 220 5,000  Level Houston Center
06:43PM 31.0514 -89.5083 21° North 191 220 5,100  Climbing Houston Center
06:45PM 31.1000 -89.4853 22° Northeast 191 220 5,100  Level Houston Center
06:46PM 31.1503 -89.4628 21° North 191 220 5,100  Level Houston Center
06:47PM 31.1997 -89.4378 23° Northeast 191 220 5,100 -60 Level Houston Center
06:48PM 31.2497 -89.4164 20° North 191 220 5,000  Descending Houston Center
06:49PM 31.2997 -89.3917 23° Northeast 191 220 5,100  Climbing Houston Center
06:50PM 31.3586 -89.3644 22° Northeast 191 220 5,100  Level Houston Center
06:51PM 31.4094 -89.3414 21° North 191 220 5,100 -60 Level Houston Center
06:52PM 31.4511 -89.3058 36° Northeast 189 217 5,000  Descending Houston Center
06:53PM 31.4925 -89.2692 37° Northeast 189 217 5,100  Climbing Houston Center
06:54PM 31.5336 -89.2322 37° Northeast 188 216 5,100  Level Houston Center
06:55PM 31.5819 -89.1867 39° Northeast 188 216 5,200  Climbing Houston Center
06:56PM 31.6222 -89.1497 38° Northeast 188 216 5,200  Level Houston Center
06:57PM 31.6633 -89.1131 37° Northeast 188 216 5,200  Level Houston Center
06:58PM 31.7039 -89.0747 39° Northeast 188 216 5,200  Level Houston Center
06:59PM 31.7453 -89.0369 38° Northeast 188 216 5,200  Level Houston Center
07:00PM 31.7869 -88.9997 37° Northeast 188 216 5,200  Level Houston Center
07:01PM 31.8356 -88.9536 39° Northeast 188 216 5,200  Level Houston Center
07:02PM 31.8761 -88.9158 38° Northeast 188 216 5,200  Level Houston Center
07:03PM 31.9178 -88.8769 38° Northeast 188 216 5,200  Level Houston Center
07:04PM 31.9594 -88.8392 38° Northeast 188 216 5,200  Level Houston Center
07:05PM 32.0011 -88.8000 39° Northeast 188 216 5,200  Level Houston Center
07:06PM 32.0425 -88.7625 38° Northeast 188 216 5,200  Level Houston Center
07:07PM 32.0917 -88.7164 38° Northeast 188 216 5,200  Level Houston Center
07:08PM 32.1328 -88.6781 38° Northeast 188 216 5,200 -60 Level Houston Center
07:10PM 32.1825 -88.6319 38° Northeast 188 216 5,100 -60 Descending Memphis Center
07:11PM 32.2264 -88.5914 38° Northeast 188 216 5,100  Level Memphis Center
07:12PM 32.2675 -88.5519 39° Northeast 189 217 5,100  Level Memphis Center
07:13PM 32.3081 -88.5142 38° Northeast 189 217 5,100  Level Memphis Center
07:14PM 32.3497 -88.4764 37° Northeast 189 217 5,100  Level Memphis Center
07:15PM 32.3867 -88.4364 42° Northeast 188 216 5,100  Level Memphis Center
07:16PM 32.4239 -88.3756 54° Northeast 189 217 5,100  Level Memphis Center
07:26PM 32.7808 -87.8992 50° Northeast 178 205 5,100  Level Memphis Center
07:27PM 32.7842 -87.8821 52° Northeast  Level FlightAware Approximate
07:27PM 32.8147 -87.8422 55° Northeast 201 231 5,100  Level Memphis Center
07:28PM 32.8158 -87.8347 52° Northeast  Level FlightAware Approximate
07:28PM 32.8489 -87.7964 48° Northeast 199 229 5,100  Level Memphis Center
07:29PM 32.8485 -87.7884 50° Northeast  Level FlightAware Approximate
07:29PM 32.8831 -87.7492 49° Northeast 193 222 5,100  Level Memphis Center
07:30PM 32.8813 -87.7420 50° Northeast  Level FlightAware Approximate
07:30PM 32.9167 -87.7017 50° Northeast 192 221 5,100  Level Memphis Center
07:31PM 32.9140 -87.6957 50° Northeast  Level FlightAware Approximate
07:31PM 32.9500 -87.6556 49° Northeast 191 220 5,100  Level Memphis Center
07:32PM 32.9844 -87.6103 48° Northeast 190 219 5,100  Level Memphis Center
07:33PM 33.0247 -87.5525 50° Northeast 190 219 5,100  Level Memphis Center
07:34PM 33.0586 -87.5033 51° Northeast 190 219 5,100  Level Memphis Center
07:35PM 33.0933 -87.4553 49° Northeast 190 219 5,100  Level Memphis Center
07:36PM 33.1108 -87.4050 67° East 186 214 5,200  Climbing Memphis Center
07:37PM 33.1075 -87.3497 94° East 174 200 5,100 -60 Descending Memphis Center
07:38PM 33.1031 -87.2933 95° East 172 198 5,100  Level Memphis Center
07:39PM 33.1003 -87.2400 94° East 170 196 5,100  Level Memphis Center
07:40PM 33.1106 -87.2083 69° East 167 192 5,100  Level Atlanta Center
07:40PM 33.1258 -87.1889 47° Northeast 169 194 5,100  Level Atlanta Center
07:41PM 33.1539 -87.1503 49° Northeast 165 190 5,100 -120 Level Atlanta Center
07:42PM 33.1800 -87.1114 51° Northeast 160 184 4,900 -240 Descending Atlanta Center
07:46PM 33.2366 -87.0166 54° Northeast  Level FlightAware Approximate
07:53PM 33.3000 -86.9167 53° Northeast  Level FlightAware Approximate
07:54PM 33.3126 -86.9263 90° East  Level Estimated